createdAt,value
2023-02-12T00:01:41.593Z,86.60
2023-02-12T00:04:09.871Z,89.70
2023-02-12T00:06:39.323Z,97.60
2023-02-12T00:09:07.653Z,81.20
2023-02-12T00:11:36.138Z,81.30
2023-02-12T00:14:05.882Z,103.80
2023-02-12T00:16:34.427Z,80.80
2023-02-12T00:19:03.013Z,73.00
2023-02-12T00:21:31.389Z,81.60
2023-02-12T00:23:59.872Z,78.60
2023-02-12T00:26:28.152Z,78.40
2023-02-12T00:28:56.648Z,75.50
2023-02-12T00:31:30.387Z,95.40
2023-02-12T00:34:00.349Z,83.20
2023-02-12T00:36:30.833Z,78.40
2023-02-12T00:38:59.365Z,92.60
2023-02-12T00:41:28.150Z,80.00
2023-02-12T00:43:56.853Z,86.30
2023-02-12T00:46:25.283Z,80.30
2023-02-12T00:48:53.594Z,89.70
2023-02-12T00:51:24.074Z,79.10
2023-02-12T00:53:52.918Z,80.70
2023-02-12T00:56:21.436Z,88.30
2023-02-12T00:58:51.109Z,83.10
2023-02-12T01:01:19.763Z,97.60
2023-02-12T01:03:48.176Z,92.80
2023-02-12T01:06:16.459Z,91.40
2023-02-12T01:08:44.831Z,86.00
2023-02-12T01:11:14.443Z,84.90
2023-02-12T01:13:42.815Z,79.00
2023-02-12T01:16:16.686Z,70.80
2023-02-12T01:18:45.720Z,82.90
2023-02-12T01:21:23.621Z,71.50
2023-02-12T01:23:51.799Z,81.40
2023-02-12T01:26:21.788Z,72.40
2023-02-12T01:28:55.465Z,73.00
2023-02-12T01:31:26.840Z,66.50
2023-02-12T01:33:57.484Z,75.00
2023-02-12T01:36:27.105Z,85.20
2023-02-12T01:38:56.340Z,77.90
2023-02-12T01:41:31.587Z,66.70
2023-02-12T01:44:24.522Z,80.90
2023-02-12T01:46:59.230Z,78.40
2023-02-12T01:49:40.855Z,68.20
2023-02-12T01:52:16.365Z,77.20
2023-02-12T01:54:44.849Z,72.00
2023-02-12T01:57:14.761Z,78.50
2023-02-12T01:59:45.584Z,69.80
2023-02-12T02:02:14.487Z,105.40
2023-02-12T02:04:50.757Z,130.50
2023-02-12T02:07:19.236Z,128.80
2023-02-12T02:09:48.024Z,102.30
2023-02-12T02:12:35.551Z,93.90
2023-02-12T02:15:06.491Z,78.50
2023-02-12T02:17:53.537Z,79.40
2023-02-12T02:20:45.844Z,79.10
2023-02-12T02:23:23.335Z,90.50
2023-02-12T02:25:54.458Z,85.40
2023-02-12T02:28:31.576Z,80.10
2023-02-12T02:31:10.096Z,71.30
2023-02-12T02:34:22.797Z,74.80
2023-02-12T02:37:08.736Z,73.80
2023-02-12T02:40:12.307Z,71.70
2023-02-12T02:42:48.956Z,74.70
2023-02-12T02:45:43.133Z,74.30
2023-02-12T02:48:17.573Z,78.00
2023-02-12T02:50:51.842Z,82.70
2023-02-12T02:53:45.445Z,76.20
2023-02-12T02:56:18.036Z,73.40
2023-02-12T02:59:04.956Z,78.40
2023-02-12T03:01:55.170Z,75.60
2023-02-12T03:04:44.212Z,81.90
2023-02-12T03:07:26.511Z,78.50
2023-02-12T03:10:01.807Z,76.50
2023-02-12T03:12:43.956Z,74.10
2023-02-12T03:15:23.085Z,79.80
2023-02-12T03:17:51.757Z,85.90
2023-02-12T03:20:24.862Z,74.50
2023-02-12T03:22:58.648Z,83.00
2023-02-12T03:25:42.722Z,79.70
2023-02-12T03:28:17.560Z,86.80
2023-02-12T03:31:01.440Z,87.30
2023-02-12T03:33:53.127Z,82.30
2023-02-12T03:36:34.636Z,83.70
2023-02-12T03:39:33.601Z,81.40
2023-02-12T03:42:14.678Z,85.40
2023-02-12T03:44:53.102Z,86.40
2023-02-12T03:47:27.985Z,87.50
2023-02-12T03:50:03.604Z,84.80
2023-02-12T03:52:31.956Z,85.80
2023-02-12T03:55:00.582Z,88.00
2023-02-12T03:57:35.358Z,78.90
2023-02-12T04:00:08.012Z,90.10
2023-02-12T04:02:43.590Z,75.10
2023-02-12T04:05:20.404Z,80.80
2023-02-12T04:07:50.178Z,82.90
2023-02-12T04:10:21.425Z,76.80
2023-02-12T04:12:54.655Z,82.60
2023-02-12T04:15:54.376Z,73.10
2023-02-12T04:18:41.445Z,84.50
2023-02-12T04:21:44.975Z,73.10
2023-02-12T04:24:23.671Z,77.00
2023-02-12T04:27:05.059Z,80.50
2023-02-12T04:30:04.263Z,78.00
2023-02-12T04:32:46.971Z,81.00
2023-02-12T04:35:24.568Z,85.40
2023-02-12T04:38:15.279Z,93.00
2023-02-12T04:40:44.470Z,90.30
2023-02-12T04:43:12.954Z,88.30
2023-02-12T04:45:41.375Z,91.20
2023-02-12T04:48:10.837Z,91.70
2023-02-12T04:50:42.406Z,116.70
2023-02-12T04:53:11.698Z,97.70
2023-02-12T04:55:39.883Z,101.70
2023-02-12T04:58:08.450Z,100.10
2023-02-12T05:00:36.944Z,91.10
2023-02-12T05:03:05.111Z,94.50
2023-02-12T05:05:33.496Z,107.60
2023-02-12T05:08:01.764Z,110.00
2023-02-12T05:10:29.940Z,105.80
2023-02-12T05:12:58.322Z,89.20
2023-02-12T05:15:26.856Z,271.90
2023-02-12T05:17:55.278Z,367.20
2023-02-12T05:20:23.664Z,100.60
2023-02-12T05:22:53.778Z,96.30
2023-02-12T05:25:22.165Z,296.10
2023-02-12T05:27:50.538Z,87.40
2023-02-12T05:30:18.914Z,86.20
2023-02-12T05:32:47.091Z,131.60
2023-02-12T05:35:15.471Z,93.90
2023-02-12T05:37:43.846Z,97.00
2023-02-12T05:40:12.942Z,284.40
2023-02-12T05:42:41.323Z,349.80
2023-02-12T05:45:10.114Z,115.60
2023-02-12T05:47:38.392Z,204.20
2023-02-12T05:50:07.687Z,331.60
2023-02-12T05:52:35.759Z,390.70
2023-02-12T05:55:04.489Z,384.40
2023-02-12T05:57:32.720Z,314.20
2023-02-12T06:00:01.113Z,260.00
2023-02-12T06:02:40.773Z,187.50
2023-02-12T06:05:09.434Z,344.80
2023-02-12T06:07:37.923Z,492.10
2023-02-12T06:10:07.108Z,499.30
2023-02-12T06:12:35.387Z,543.40
2023-02-12T06:15:04.280Z,473.70
2023-02-12T06:17:34.291Z,258.10
2023-02-12T06:20:03.117Z,147.70
2023-02-12T06:22:31.565Z,311.70
2023-02-12T06:24:59.817Z,320.10
2023-02-12T06:27:28.832Z,250.70
2023-02-12T06:29:57.008Z,336.70
2023-02-12T06:32:25.800Z,174.70
2023-02-12T06:34:54.078Z,261.50
2023-02-12T06:37:22.166Z,312.00
2023-02-12T06:39:51.075Z,372.70
2023-02-12T06:42:20.036Z,334.70
2023-02-12T06:44:48.685Z,132.20
2023-02-12T06:47:18.126Z,112.30
2023-02-12T06:49:46.502Z,191.20
2023-02-12T06:52:14.987Z,108.20
2023-02-12T06:54:43.398Z,100.30
2023-02-12T06:57:11.847Z,96.50
2023-02-12T06:59:40.063Z,211.80
2023-02-12T07:02:10.586Z,278.10
2023-02-12T07:04:39.543Z,412.60
2023-02-12T07:07:08.029Z,236.90
2023-02-12T07:09:36.306Z,112.40
2023-02-12T07:12:04.688Z,201.00
2023-02-12T07:14:33.273Z,143.70
2023-02-12T07:17:03.995Z,121.70
2023-02-12T07:19:32.276Z,218.20
2023-02-12T07:22:00.755Z,183.60
2023-02-12T07:24:30.137Z,122.50
2023-02-12T07:26:58.438Z,299.30
2023-02-12T07:29:26.609Z,358.50
2023-02-12T07:31:55.211Z,256.40
2023-02-12T07:34:23.778Z,270.90
2023-02-12T07:36:52.057Z,295.20
2023-02-12T07:39:20.230Z,345.40
2023-02-12T07:41:48.406Z,193.80
2023-02-12T07:44:16.987Z,139.50
2023-02-12T07:46:48.587Z,215.70
2023-02-12T07:49:19.788Z,235.00
2023-02-12T07:51:49.883Z,228.70
2023-02-12T07:54:18.492Z,294.70
2023-02-12T07:56:47.527Z,182.00
2023-02-12T07:59:19.328Z,302.70
2023-02-12T08:01:52.385Z,168.00
2023-02-12T08:04:24.641Z,144.60
2023-02-12T08:06:55.345Z,102.20
2023-02-12T08:09:31.023Z,116.60
2023-02-12T08:11:59.619Z,139.40
2023-02-12T08:14:29.065Z,168.10
2023-02-12T08:16:57.514Z,268.90
2023-02-12T08:19:26.881Z,129.70
2023-02-12T08:21:56.780Z,336.10
2023-02-12T08:24:25.474Z,254.40
2023-02-12T08:26:54.145Z,79.30
2023-02-12T08:29:25.881Z,112.20
2023-02-12T08:31:59.894Z,147.90
2023-02-12T08:34:32.259Z,115.00
2023-02-12T08:37:01.366Z,207.40
2023-02-12T08:39:30.388Z,91.10
2023-02-12T08:42:00.416Z,63.90
2023-02-12T08:44:29.390Z,123.50
2023-02-12T08:46:57.682Z,109.20
2023-02-12T08:49:29.968Z,82.30
2023-02-12T08:52:00.052Z,293.90
2023-02-12T08:54:30.739Z,175.50
2023-02-12T08:57:01.609Z,119.30
2023-02-12T08:59:30.518Z,112.20
2023-02-12T09:01:58.615Z,128.20
2023-02-12T09:04:28.405Z,100.80
2023-02-12T09:06:56.586Z,135.90
2023-02-12T09:09:24.750Z,163.80
2023-02-12T09:11:53.127Z,70.60
2023-02-12T09:14:25.149Z,64.60
2023-02-12T09:16:55.368Z,87.50
2023-02-12T09:19:26.353Z,76.50
2023-02-12T09:21:56.966Z,88.30
2023-02-12T09:24:27.983Z,70.70
2023-02-12T09:26:57.341Z,122.20
2023-02-12T09:29:25.614Z,71.20
2023-02-12T09:31:54.236Z,137.00
2023-02-12T09:34:22.669Z,73.80
2023-02-12T09:36:51.159Z,83.50
2023-02-12T09:39:19.844Z,146.10
2023-02-12T09:41:56.517Z,187.80
2023-02-12T09:44:42.913Z,57.90
2023-02-12T09:47:15.682Z,92.20
2023-02-12T09:49:55.860Z,153.00
2023-02-12T09:52:28.029Z,68.60
2023-02-12T09:54:57.116Z,99.40
2023-02-12T09:57:33.642Z,81.30
2023-02-12T10:00:14.992Z,133.80
2023-02-12T10:02:43.558Z,101.00
2023-02-12T10:05:19.024Z,71.90
2023-02-12T10:08:20.627Z,59.50
2023-02-12T10:11:01.130Z,90.30
2023-02-12T10:14:03.195Z,42.30
2023-02-12T10:16:43.564Z,166.50
2023-02-12T10:19:24.222Z,160.70
2023-02-12T10:22:07.837Z,205.80
2023-02-12T10:24:49.678Z,100.60
2023-02-12T10:27:32.581Z,101.10
2023-02-12T10:30:04.031Z,93.40
2023-02-12T10:32:35.853Z,128.80
2023-02-12T10:35:13.841Z,225.50
2023-02-12T10:37:58.559Z,284.70
2023-02-12T10:40:32.790Z,46.10
2023-02-12T10:43:03.144Z,130.00
2023-02-12T10:45:34.960Z,64.00
2023-02-12T10:48:13.872Z,100.90
2023-02-12T10:51:00.374Z,129.70
2023-02-12T10:53:35.005Z,200.10
2023-02-12T10:56:13.519Z,72.50
2023-02-12T10:58:51.223Z,102.00
2023-02-12T11:01:28.771Z,205.70
